Time;durP1;ratioP1;P1;durP2;ratioP2;P2;SDS_P1;SDS_P2;PMS_P1;PMS_P2;Temp;Humidity;BMP_temperature;BMP_pressure;BME280_temperature;BME280_humidity;BME280_pressure;Samples;Min_cycle;Max_cycle;Signal;HPM_P1;HPM_P2
2023/08/08 00:00:36;;;;;;;34.58;32.20;;;13.70;99.90;;;;;;4981116;28;20117;-82
2023/08/08 00:03:01;;;;;;;32.90;30.73;;;13.60;99.90;;;;;;4989026;28;20046;-82
2023/08/08 00:05:27;;;;;;;24.50;22.90;;;13.70;99.90;;;;;;5009463;28;20038;-82
2023/08/08 00:07:53;;;;;;;26.95;25.13;;;13.50;99.90;;;;;;4991962;28;20605;-82
2023/08/08 00:10:18;;;;;;;29.80;27.63;;;13.60;99.90;;;;;;5003374;28;20042;-82
2023/08/08 00:12:44;;;;;;;41.45;38.63;;;13.60;99.90;;;;;;4988670;28;20532;-82
2023/08/08 00:15:10;;;;;;;37.33;35.10;;;13.70;99.90;;;;;;4990832;28;20392;-83
2023/08/08 00:17:36;;;;;;;29.88;27.65;;;13.70;99.90;;;;;;4989889;28;20432;-82
2023/08/08 00:20:02;;;;;;;28.27;25.92;;;13.70;99.90;;;;;;4989494;28;20085;-82
2023/08/08 00:22:29;;;;;;;32.58;29.58;;;13.70;99.90;;;;;;4977576;28;20096;-82
2023/08/08 00:24:55;;;;;;;24.63;22.85;;;13.70;99.90;;;;;;5003634;28;20034;-83
2023/08/08 00:27:21;;;;;;;26.33;24.33;;;13.70;99.90;;;;;;5005535;28;20410;-82
2023/08/08 00:29:46;;;;;;;31.17;29.10;;;13.70;99.90;;;;;;4991871;28;20121;-82
2023/08/08 00:32:12;;;;;;;27.77;25.95;;;13.70;99.90;;;;;;5007942;28;20049;-82
2023/08/08 00:34:38;;;;;;;25.55;23.27;;;13.70;99.90;;;;;;5007659;28;20046;-82
2023/08/08 00:37:03;;;;;;;31.83;29.55;;;13.70;99.90;;;;;;5009383;28;20129;-82
2023/08/08 00:39:29;;;;;;;31.77;29.65;;;13.70;99.90;;;;;;5008645;28;20189;-82
2023/08/08 00:41:55;;;;;;;27.38;25.27;;;13.70;99.90;;;;;;4996515;28;20042;-82
2023/08/08 00:44:20;;;;;;;26.20;24.42;;;13.50;99.90;;;;;;4990791;28;20495;-82
2023/08/08 00:46:46;;;;;;;29.60;27.52;;;13.80;99.90;;;;;;4988895;28;20402;-82
2023/08/08 00:49:12;;;;;;;26.45;24.50;;;13.50;99.90;;;;;;4963302;28;20405;-82
2023/08/08 00:51:38;;;;;;;24.50;22.88;;;13.60;99.90;;;;;;4971657;28;20122;-82
2023/08/08 00:54:04;;;;;;;27.55;25.48;;;13.60;99.90;;;;;;4986320;28;20046;-82
2023/08/08 00:56:30;;;;;;;33.33;30.85;;;13.50;99.90;;;;;;4990106;28;20063;-82
2023/08/08 00:58:56;;;;;;;30.15;28.13;;;13.50;99.90;;;;;;4995028;28;20503;-82
2023/08/08 01:01:21;;;;;;;33.83;31.25;;;13.50;99.90;;;;;;5002366;28;20047;-83
2023/08/08 01:03:48;;;;;;;38.15;35.45;;;13.50;99.90;;;;;;4993266;28;20042;-82
2023/08/08 01:06:38;;;;;;;41.95;39.28;;;13.50;99.90;;;;;;5012935;28;20100;-83
2023/08/08 01:09:24;;;;;;;40.15;37.58;;;13.40;99.90;;;;;;5011881;28;20161;-82
2023/08/08 01:11:51;;;;;;;45.08;42.25;;;13.40;99.90;;;;;;5010810;28;20569;-82
2023/08/08 01:14:18;;;;;;;41.15;38.58;;;13.40;99.90;;;;;;4991603;28;20046;-82
2023/08/08 01:16:45;;;;;;;40.80;38.05;;;13.30;99.90;;;;;;5008331;28;20587;-83
2023/08/08 01:19:19;;;;;;;36.78;34.42;;;13.30;99.90;;;;;;5009750;28;20527;-82
2023/08/08 01:21:48;;;;;;;38.67;36.03;;;13.30;99.90;;;;;;5010909;28;20145;-83
2023/08/08 01:24:29;;;;;;;50.05;46.90;;;13.30;99.90;;;;;;4999676;28;20481;-82
2023/08/08 01:26:55;;;;;;;39.03;36.38;;;13.30;99.90;;;;;;4993014;28;20218;-82
2023/08/08 01:29:21;;;;;;;47.70;44.47;;;13.40;99.90;;;;;;5002522;28;20076;-82
2023/08/08 01:31:47;;;;;;;49.47;46.10;;;13.50;99.90;;;;;;5011330;28;20082;-82
2023/08/08 01:34:13;;;;;;;50.95;47.58;;;13.20;99.90;;;;;;5011478;28;20451;-83
2023/08/08 01:36:49;;;;;;;62.05;58.22;;;13.10;99.90;;;;;;5010677;28;20046;-82
2023/08/08 01:39:20;;;;;;;53.85;50.63;;;13.10;99.90;;;;;;5011011;28;20053;-83
2023/08/08 01:41:48;;;;;;;50.78;47.47;;;13.10;99.90;;;;;;5010963;28;20060;-82
2023/08/08 01:44:15;;;;;;;62.80;58.83;;;13.20;99.90;;;;;;4995244;28;20517;-82
2023/08/08 01:46:41;;;;;;;62.05;58.08;;;13.10;99.90;;;;;;5001682;28;20054;-82
2023/08/08 01:49:06;;;;;;;59.92;56.10;;;13.00;99.90;;;;;;5011926;28;20469;-83
2023/08/08 01:51:32;;;;;;;43.97;41.33;;;13.10;99.90;;;;;;5011612;28;20046;-82
2023/08/08 01:53:58;;;;;;;62.45;58.45;;;13.10;99.90;;;;;;5011882;28;20045;-83
2023/08/08 01:56:23;;;;;;;72.43;67.90;;;13.10;99.90;;;;;;5006416;28;20416;-83
2023/08/08 01:58:49;;;;;;;65.10;61.00;;;13.00;99.90;;;;;;5012156;28;20173;-83
2023/08/08 02:01:14;;;;;;;52.90;49.65;;;13.10;99.90;;;;;;5005584;28;20073;-83
2023/08/08 02:03:40;;;;;;;53.90;50.08;;;13.10;99.90;;;;;;4991949;28;20042;-83
2023/08/08 02:06:06;;;;;;;60.08;56.40;;;13.30;99.90;;;;;;4991991;28;20046;-83
2023/08/08 02:08:31;;;;;;;65.50;61.35;;;13.10;99.90;;;;;;4990938;28;20555;-81
2023/08/08 02:10:57;;;;;;;79.10;74.25;;;13.10;99.90;;;;;;4993348;28;20397;-82
2023/08/08 02:13:22;;;;;;;61.45;57.30;;;13.10;99.90;;;;;;5000609;28;20664;-82
2023/08/08 02:15:48;;;;;;;72.00;67.50;;;13.10;99.90;;;;;;4999161;28;20447;-82
2023/08/08 02:18:14;;;;;;;58.70;54.92;;;13.20;99.90;;;;;;5004436;28;20396;-82
2023/08/08 02:20:39;;;;;;;56.85;53.38;;;13.20;99.90;;;;;;5009609;28;20061;-83
2023/08/08 02:23:05;;;;;;;61.38;57.67;;;13.20;99.90;;;;;;5010022;28;20081;-82
2023/08/08 02:25:31;;;;;;;63.65;59.17;;;13.30;99.90;;;;;;5009909;28;20195;-82
2023/08/08 02:27:57;;;;;;;47.30;44.38;;;13.30;99.90;;;;;;5011913;28;20036;-82
2023/08/08 02:30:22;;;;;;;51.53;48.17;;;13.30;99.90;;;;;;5009909;28;20370;-82
2023/08/08 02:32:48;;;;;;;63.72;59.67;;;13.30;99.90;;;;;;4989316;28;20058;-82
2023/08/08 02:35:14;;;;;;;55.97;52.42;;;13.30;99.90;;;;;;4986457;28;20038;-82
2023/08/08 02:37:39;;;;;;;51.83;48.08;;;13.30;99.90;;;;;;4971082;28;20482;-82
2023/08/08 02:40:06;;;;;;;54.92;51.40;;;13.30;99.90;;;;;;4972480;28;20656;-82
2023/08/08 02:42:32;;;;;;;54.58;51.08;;;13.40;99.90;;;;;;4970874;28;20046;-82
2023/08/08 02:44:58;;;;;;;47.95;44.83;;;13.80;99.90;;;;;;4971998;28;20559;-82
2023/08/08 02:47:24;;;;;;;47.83;44.70;;;13.30;99.90;;;;;;5004610;28;20038;-82
2023/08/08 02:49:50;;;;;;;37.10;34.28;;;13.30;99.90;;;;;;5009372;28;20049;-83
2023/08/08 02:52:16;;;;;;;47.28;44.05;;;13.30;99.90;;;;;;5009691;28;20037;-82
2023/08/08 02:54:41;;;;;;;52.30;49.05;;;13.30;99.90;;;;;;5010892;28;20109;-82
2023/08/08 02:57:07;;;;;;;56.55;52.85;;;13.30;99.90;;;;;;5009493;28;20125;-82
2023/08/08 02:59:33;;;;;;;47.78;44.30;;;13.30;99.90;;;;;;5009585;28;20124;-83
2023/08/08 03:01:58;;;;;;;45.83;42.78;;;13.30;99.90;;;;;;5010856;28;20061;-82
2023/08/08 03:04:24;;;;;;;43.70;40.75;;;13.40;99.90;;;;;;5010490;28;20046;-82
2023/08/08 03:06:50;;;;;;;44.00;40.85;;;13.30;99.90;;;;;;5009686;28;20467;-82
2023/08/08 03:09:15;;;;;;;62.63;58.60;;;13.30;99.90;;;;;;5009506;28;20119;-82
2023/08/08 03:11:41;;;;;;;49.83;46.50;;;13.40;99.90;;;;;;5009317;28;20477;-82
2023/08/08 03:14:08;;;;;;;50.70;47.28;;;13.70;99.90;;;;;;5010258;28;20029;-82
2023/08/08 03:16:34;;;;;;;41.88;39.08;;;13.30;99.90;;;;;;4995905;28;20043;-82
2023/08/08 03:19:00;;;;;;;56.35;52.85;;;13.70;99.90;;;;;;4969886;28;20112;-82
2023/08/08 03:21:25;;;;;;;50.30;46.78;;;13.30;99.90;;;;;;4970264;28;20428;-82
2023/08/08 03:23:51;;;;;;;64.57;60.60;;;13.50;99.90;;;;;;4971294;28;20525;-83
2023/08/08 03:26:17;;;;;;;68.13;63.63;;;13.30;99.90;;;;;;4970014;28;20039;-82
2023/08/08 03:28:42;;;;;;;69.88;65.43;;;13.20;99.90;;;;;;4969772;28;20084;-82
2023/08/08 03:31:08;;;;;;;71.38;66.95;;;13.20;99.90;;;;;;4978201;28;20050;-82
2023/08/08 03:33:34;;;;;;;49.78;46.17;;;13.20;99.90;;;;;;4990239;28;20041;-81
2023/08/08 03:35:59;;;;;;;76.55;71.40;;;13.60;99.90;;;;;;4972899;28;20046;-82
2023/08/08 03:38:25;;;;;;;75.07;70.00;;;13.20;99.90;;;;;;4990609;28;20623;-82
2023/08/08 03:40:51;;;;;;;73.25;68.63;;;13.50;99.90;;;;;;4989152;28;20133;-81
2023/08/08 03:43:16;;;;;;;63.53;59.25;;;13.20;99.90;;;;;;4990197;28;20408;-82
2023/08/08 03:45:43;;;;;;;81.75;76.53;;;13.20;99.90;;;;;;4996375;28;20612;-82
2023/08/08 03:48:09;;;;;;;59.60;56.00;;;13.10;99.90;;;;;;5008112;28;20057;-82
2023/08/08 03:50:35;;;;;;;71.38;67.00;;;13.10;99.90;;;;;;5009769;28;20396;-82
2023/08/08 03:53:00;;;;;;;71.03;66.75;;;13.60;99.90;;;;;;4992269;28;20053;-81
2023/08/08 03:55:26;;;;;;;64.72;60.92;;;13.10;99.90;;;;;;5009723;28;20041;-82
2023/08/08 03:57:52;;;;;;;56.65;53.08;;;13.20;99.90;;;;;;5011732;28;20484;-83
2023/08/08 04:00:17;;;;;;;65.97;61.85;;;13.20;99.90;;;;;;5011613;28;20046;-82
2023/08/08 04:02:43;;;;;;;59.10;55.20;;;13.20;99.90;;;;;;5008998;28;20096;-82
2023/08/08 04:05:09;;;;;;;81.55;76.43;;;13.30;99.90;;;;;;4986153;28;20128;-82
2023/08/08 04:07:35;;;;;;;82.90;77.43;;;13.30;99.90;;;;;;4991522;28;20050;-82
2023/08/08 04:10:01;;;;;;;79.40;74.10;;;13.30;99.90;;;;;;5008076;28;20046;-81
2023/08/08 04:12:27;;;;;;;73.68;69.25;;;13.30;99.90;;;;;;5007796;28;20046;-81
2023/08/08 04:14:52;;;;;;;54.35;50.70;;;13.30;99.90;;;;;;5009309;28;20045;-81
2023/08/08 04:17:18;;;;;;;64.13;60.03;;;13.30;99.90;;;;;;5007733;28;20041;-81
2023/08/08 04:19:44;;;;;;;66.82;62.53;;;13.30;99.90;;;;;;5007329;28;20413;-80
2023/08/08 04:22:10;;;;;;;70.20;65.65;;;13.30;99.90;;;;;;4994489;28;20046;-81
2023/08/08 04:24:36;;;;;;;71.25;66.10;;;13.30;99.90;;;;;;4988187;28;20053;-81
2023/08/08 04:27:01;;;;;;;85.32;79.78;;;13.80;99.90;;;;;;4991767;28;20038;-81
2023/08/08 04:29:27;;;;;;;104.57;98.18;;;13.30;99.90;;;;;;4992244;28;20042;-81
2023/08/08 04:31:53;;;;;;;80.40;75.30;;;13.40;99.90;;;;;;4991863;28;20039;-80
2023/08/08 04:34:18;;;;;;;77.43;72.45;;;13.40;99.90;;;;;;4992220;28;20038;-81
2023/08/08 04:36:44;;;;;;;87.85;82.05;;;13.40;99.90;;;;;;5007377;28;20042;-81
2023/08/08 04:39:09;;;;;;;60.33;56.50;;;13.50;99.90;;;;;;5011776;28;20034;-80
2023/08/08 04:41:35;;;;;;;67.80;62.92;;;13.90;99.90;;;;;;4995338;28;20038;-81
2023/08/08 04:44:01;;;;;;;73.93;68.88;;;13.60;99.90;;;;;;5013202;28;20129;-81
2023/08/08 04:46:26;;;;;;;44.00;40.85;;;13.70;99.90;;;;;;5012406;28;20046;-81
2023/08/08 04:48:52;;;;;;;46.33;43.08;;;13.70;99.90;;;;;;5013149;28;20048;-81
2023/08/08 04:51:18;;;;;;;46.58;43.28;;;13.90;99.90;;;;;;5002411;28;20050;-81
2023/08/08 04:53:43;;;;;;;35.40;32.53;;;13.80;99.90;;;;;;4973718;28;20057;-81
2023/08/08 04:56:09;;;;;;;40.10;37.13;;;13.80;99.90;;;;;;4972526;28;20042;-81
2023/08/08 04:58:35;;;;;;;39.08;36.47;;;13.80;99.90;;;;;;4973530;28;20039;-82
2023/08/08 05:01:00;;;;;;;56.88;52.63;;;13.70;99.90;;;;;;4972390;28;20129;-82
2023/08/08 05:03:26;;;;;;;35.25;32.63;;;13.80;99.90;;;;;;4956447;28;20481;-81
2023/08/08 05:05:52;;;;;;;34.13;31.55;;;13.70;99.90;;;;;;4973175;28;20046;-81
2023/08/08 05:08:17;;;;;;;33.38;31.15;;;13.70;99.90;;;;;;4972438;28;20478;-81
2023/08/08 05:10:43;;;;;;;44.97;41.88;;;13.70;99.90;;;;;;4972105;28;20047;-81
2023/08/08 05:13:10;;;;;;;41.65;38.60;;;13.80;99.90;;;;;;4972294;28;20046;-81
2023/08/08 05:15:36;;;;;;;51.05;47.33;;;13.70;99.90;;;;;;4971603;28;20616;-81
2023/08/08 05:18:01;;;;;;;37.70;34.90;;;13.90;99.90;;;;;;4973459;28;20034;-81
2023/08/08 05:20:27;;;;;;;32.95;30.08;;;13.70;99.90;;;;;;4977417;28;20038;-81
2023/08/08 05:22:53;;;;;;;30.60;28.00;;;13.70;99.90;;;;;;5011020;28;20049;-81
2023/08/08 05:25:18;;;;;;;38.47;35.50;;;13.90;99.90;;;;;;5010730;28;20374;-81
2023/08/08 05:27:44;;;;;;;41.50;38.58;;;13.70;99.90;;;;;;5012307;28;20373;-80
2023/08/08 05:30:10;;;;;;;29.08;26.83;;;13.90;99.90;;;;;;5010253;28;20057;-81
2023/08/08 05:32:36;;;;;;;37.60;35.20;;;13.80;99.90;;;;;;5012155;28;20501;-81
2023/08/08 05:35:04;;;;;;;37.70;34.60;;;14.10;99.90;;;;;;5011669;28;20033;-80
2023/08/08 05:37:30;;;;;;;27.60;25.20;;;14.00;99.90;;;;;;5010195;28;20447;-81
2023/08/08 05:39:55;;;;;;;27.35;25.25;;;14.10;99.90;;;;;;4988142;28;20046;-82
2023/08/08 05:42:21;;;;;;;22.52;20.45;;;14.30;99.90;;;;;;4996335;28;20065;-81
2023/08/08 05:44:46;;;;;;;25.70;23.73;;;14.60;99.90;;;;;;5011598;28;20038;-82
2023/08/08 05:47:12;;;;;;;31.17;28.80;;;15.70;99.90;;;;;;5010853;28;20053;-81
2023/08/08 05:49:39;;;;;;;29.55;26.48;;;17.00;99.90;;;;;;5011776;28;20049;-82
2023/08/08 05:52:06;;;;;;;30.00;27.67;;;18.40;99.90;;;;;;5011077;28;20124;-81
2023/08/08 05:54:31;;;;;;;11.95;10.85;;;19.60;99.90;;;;;;5010826;28;20054;-82
2023/08/08 05:56:57;;;;;;;8.60;5.90;;;20.60;99.90;;;;;;5003393;28;20042;-82
2023/08/08 05:59:23;;;;;;;8.85;4.90;;;21.40;99.90;;;;;;4990682;28;20042;-82
2023/08/08 06:01:49;;;;;;;7.85;5.05;;;22.20;99.90;;;;;;4999497;28;20189;-83
2023/08/08 06:04:14;;;;;;;12.32;11.15;;;22.80;99.90;;;;;;5011115;28;20046;-83
2023/08/08 06:06:41;;;;;;;27.95;26.17;;;23.30;99.90;;;;;;5011742;28;20475;-82
2023/08/08 06:09:08;;;;;;;25.17;22.73;;;23.80;99.90;;;;;;5011842;28;20117;-83
2023/08/08 06:11:34;;;;;;;48.65;45.20;;;24.10;99.90;;;;;;5012701;28;20292;-83
2023/08/08 06:14:00;;;;;;;68.82;64.35;;;24.50;99.90;;;;;;5012162;28;20115;-84
2023/08/08 06:16:25;;;;;;;472.40;439.52;;;24.50;99.90;;;;;;5011422;28;20038;-83
2023/08/08 06:18:52;;;;;;;653.25;602.22;;;25.10;99.90;;;;;;5012852;28;20120;-84
2023/08/08 06:21:18;;;;;;;1999.90;999.90;;;25.40;99.90;;;;;;5009925;28;20045;-81
2023/08/08 06:23:44;;;;;;;1999.90;999.90;;;25.70;99.90;;;;;;5011367;28;20424;-80
2023/08/08 06:26:10;;;;;;;1999.90;777.92;;;25.90;99.90;;;;;;4997591;28;20169;-80
2023/08/08 06:28:35;;;;;;;1999.90;654.40;;;26.20;99.90;;;;;;4991098;28;20496;-79
2023/08/08 06:31:02;;;;;;;1999.90;829.88;;;26.20;99.90;;;;;;4973999;28;20053;-80
2023/08/08 06:33:28;;;;;;;1999.90;714.72;;;26.20;99.90;;;;;;4990475;28;20042;-80
2023/08/08 06:35:55;;;;;;;1999.90;920.70;;;26.40;99.60;;;;;;4986837;28;20053;-81
2023/08/08 06:38:21;;;;;;;1999.90;583.78;;;26.20;99.70;;;;;;4971777;28;20425;-80
2023/08/08 06:40:47;;;;;;;1875.72;448.05;;;26.60;99.40;;;;;;4970467;28;20038;-80
2023/08/08 06:43:13;;;;;;;1999.90;623.63;;;26.60;99.30;;;;;;4970182;28;20313;-80
2023/08/08 06:45:39;;;;;;;1999.90;999.90;;;26.70;99.90;;;;;;4970429;28;20367;-80
2023/08/08 06:48:05;;;;;;;1999.90;999.90;;;26.80;99.40;;;;;;4970806;28;20385;-80
2023/08/08 06:50:31;;;;;;;1999.90;999.90;;;27.30;99.70;;;;;;4990714;28;20511;-81
2023/08/08 06:52:56;;;;;;;1999.90;999.90;;;27.50;99.00;;;;;;5009109;28;20049;-80
2023/08/08 06:55:22;;;;;;;1999.90;999.90;;;27.30;99.10;;;;;;5009003;28;20440;-82
2023/08/08 06:57:48;;;;;;;1999.90;999.90;;;27.00;98.40;;;;;;5009698;28;20516;-83
2023/08/08 07:00:14;;;;;;;1999.90;999.90;;;26.30;98.70;;;;;;5010519;28;20103;-83
2023/08/08 07:02:39;;;;;;;1999.90;999.90;;;25.60;99.00;;;;;;5010582;28;20112;-83
2023/08/08 07:05:06;;;;;;;1999.90;999.90;;;25.40;99.30;;;;;;5001007;28;20109;-82
2023/08/08 07:07:33;;;;;;;1999.90;999.90;;;25.50;98.80;;;;;;4991078;28;20078;-81
2023/08/08 07:09:59;;;;;;;1736.30;804.60;;;25.60;99.80;;;;;;4988658;28;20046;-82
2023/08/08 07:12:25;;;;;;;1790.05;805.78;;;25.50;99.20;;;;;;4988970;28;20081;-81
2023/08/08 07:14:50;;;;;;;1668.55;785.42;;;25.70;99.90;;;;;;4989033;28;20034;-82
2023/08/08 07:17:16;;;;;;;1999.90;999.90;;;25.90;99.60;;;;;;4989740;28;20113;-82
2023/08/08 07:19:42;;;;;;;1999.90;999.90;;;25.80;98.60;;;;;;4992913;28;20072;-81
2023/08/08 07:22:08;;;;;;;1999.90;999.90;;;25.70;97.70;;;;;;5006437;28;20050;-82
2023/08/08 07:24:34;;;;;;;1999.90;999.90;;;25.50;98.10;;;;;;4989943;28;20113;-82
2023/08/08 07:27:00;;;;;;;1999.90;999.90;;;25.60;99.00;;;;;;5006920;28;20122;-82
2023/08/08 07:29:26;;;;;;;1999.90;999.90;;;25.60;98.90;;;;;;4990887;28;20034;-82
2023/08/08 07:31:53;;;;;;;1999.90;999.90;;;25.80;98.20;;;;;;5007073;28;20104;-82
2023/08/08 07:34:19;;;;;;;1999.90;999.90;;;25.80;98.80;;;;;;5007206;28;20038;-82
2023/08/08 07:36:45;;;;;;;1999.90;999.90;;;26.00;98.70;;;;;;5008212;28;20520;-81
2023/08/08 07:39:11;;;;;;;1999.90;999.90;;;26.10;98.30;;;;;;5008964;28;20503;-81
2023/08/08 07:41:37;;;;;;;1999.90;999.90;;;25.70;97.70;;;;;;4992021;28;20076;-82
2023/08/08 07:44:02;;;;;;;1999.90;999.90;;;25.20;97.70;;;;;;5009787;28;20085;-82
2023/08/08 07:46:28;;;;;;;1999.90;999.90;;;25.10;98.00;;;;;;5008224;28;20052;-82
2023/08/08 07:48:54;;;;;;;1655.88;782.70;;;24.30;98.60;;;;;;4992132;28;20045;-82
2023/08/08 07:51:20;;;;;;;1999.90;999.90;;;23.40;99.50;;;;;;4992573;28;20191;-82
2023/08/08 07:53:45;;;;;;;1663.35;776.17;;;22.30;99.80;;;;;;4971716;28;20046;-82
2023/08/08 07:56:11;;;;;;;1641.50;355.42;;;22.10;99.90;;;;;;4989760;28;20092;-81
2023/08/08 07:58:37;;;;;;;1999.90;697.10;;;21.80;99.90;;;;;;4972396;28;20096;-82
2023/08/08 08:01:02;;;;;;;1999.90;643.35;;;22.10;99.90;;;;;;4989107;28;20053;-82
2023/08/08 08:03:28;;;;;;;1999.90;790.63;;;22.50;99.90;;;;;;4972085;28;20049;-82
2023/08/08 08:05:54;;;;;;;1999.90;635.15;;;22.40;99.90;;;;;;4988216;28;20048;-83
2023/08/08 08:08:21;;;;;;;1999.90;772.60;;;22.20;99.90;;;;;;4987528;28;20045;-81
2023/08/08 08:10:48;;;;;;;1999.90;634.65;;;22.00;99.90;;;;;;4971940;28;20042;-81
2023/08/08 08:13:14;;;;;;;1999.90;562.90;;;22.00;99.90;;;;;;4971883;28;20052;-81
2023/08/08 08:15:39;;;;;;;1999.90;848.30;;;21.80;99.90;;;;;;4988330;28;20116;-81
2023/08/08 08:18:05;;;;;;;1999.90;689.30;;;21.60;99.90;;;;;;4972078;28;20437;-82
2023/08/08 08:20:31;;;;;;;1950.72;456.35;;;21.70;99.90;;;;;;5002689;28;20285;-82
2023/08/08 08:22:56;;;;;;;1999.90;673.22;;;21.50;99.90;;;;;;5007222;28;20041;-80
2023/08/08 08:25:22;;;;;;;1999.90;723.75;;;21.30;99.90;;;;;;5009149;28;20121;-82
2023/08/08 08:27:47;;;;;;;1999.90;818.45;;;21.20;99.90;;;;;;5007737;28;20041;-81
2023/08/08 08:30:13;;;;;;;1999.90;802.15;;;21.30;99.90;;;;;;5007764;28;20046;-82
2023/08/08 08:32:40;;;;;;;1999.90;801.15;;;21.50;99.90;;;;;;5007594;28;20030;-81
2023/08/08 08:35:07;;;;;;;1999.90;734.25;;;21.40;99.90;;;;;;5007217;28;20034;-81
2023/08/08 08:37:34;;;;;;;1999.90;679.70;;;21.40;99.90;;;;;;5008807;28;20034;-81
2023/08/08 08:40:00;;;;;;;1999.90;587.13;;;21.20;99.90;;;;;;4991135;28;20042;-81
2023/08/08 08:42:31;;;;;;;1999.90;924.30;;;21.40;99.90;;;;;;4991207;28;20128;-81
2023/08/08 08:44:58;;;;;;;1999.90;939.67;;;21.50;99.90;;;;;;5007697;28;20128;-81
2023/08/08 08:47:25;;;;;;;1999.90;955.17;;;21.30;99.90;;;;;;5007545;28;20045;-81
2023/08/08 08:49:52;;;;;;;1999.90;900.30;;;21.20;99.90;;;;;;4991866;28;20126;-81
2023/08/08 08:52:18;;;;;;;1999.90;954.05;;;21.20;99.90;;;;;;4967966;28;20039;-81
2023/08/08 08:54:44;;;;;;;1977.30;914.30;;;20.90;99.90;;;;;;4969894;28;20390;-81
2023/08/08 08:57:11;;;;;;;1554.60;904.63;;;20.80;99.90;;;;;;4952469;28;20238;-81
2023/08/08 08:59:37;;;;;;;1999.90;908.13;;;20.70;99.90;;;;;;4968377;28;20105;-81
2023/08/08 09:02:02;;;;;;;1999.90;997.40;;;20.60;99.90;;;;;;4969810;28;20129;-81
2023/08/08 09:04:29;;;;;;;1999.90;999.90;;;20.80;99.90;;;;;;4980164;28;20038;-80
2023/08/08 09:06:56;;;;;;;1999.90;923.70;;;20.80;99.90;;;;;;4987500;28;20034;-81
2023/08/08 09:09:22;;;;;;;1999.90;892.78;;;20.80;99.90;;;;;;4987886;28;20184;-81
2023/08/08 09:11:50;;;;;;;1999.90;956.25;;;21.10;99.90;;;;;;4989331;28;20035;-81
2023/08/08 09:14:21;;;;;;;1999.90;998.40;;;21.00;99.90;;;;;;4992852;28;20113;-81
2023/08/08 09:16:47;;;;;;;1999.90;967.40;;;21.00;99.90;;;;;;4991792;28;20046;-81
2023/08/08 09:19:14;;;;;;;1557.13;937.10;;;20.90;99.90;;;;;;5003473;28;20056;-81
2023/08/08 09:21:40;;;;;;;1999.90;999.90;;;21.30;99.90;;;;;;5012117;28;20045;-82
2023/08/08 09:24:06;;;;;;;1999.90;999.90;;;21.90;99.90;;;;;;5011049;28;20107;-81
2023/08/08 09:26:32;;;;;;;1999.90;929.88;;;21.90;99.90;;;;;;5012407;28;20044;-81
2023/08/08 09:28:58;;;;;;;1999.90;888.55;;;21.40;99.90;;;;;;5010717;28;20073;-81
2023/08/08 09:31:27;;;;;;;1999.90;980.17;;;20.70;99.90;;;;;;5010495;28;20072;-81
2023/08/08 09:34:00;;;;;;;1999.90;945.47;;;20.60;99.90;;;;;;5010813;28;20488;-81
2023/08/08 09:36:26;;;;;;;1999.90;904.10;;;21.30;99.90;;;;;;5009899;28;20049;-81
2023/08/08 09:38:56;;;;;;;1999.90;999.90;;;21.60;99.90;;;;;;5012033;28;20041;-81
2023/08/08 09:41:23;;;;;;;1999.90;942.17;;;22.10;99.90;;;;;;5010780;28;20452;-81
2023/08/08 09:43:50;;;;;;;1999.90;996.88;;;22.10;99.90;;;;;;5010460;28;20048;-81
2023/08/08 09:46:18;;;;;;;1984.85;954.70;;;21.70;99.90;;;;;;5011969;28;20081;-80
2023/08/08 09:48:44;;;;;;;1999.90;999.90;;;22.00;99.90;;;;;;5004979;28;20097;-81
2023/08/08 09:51:10;;;;;;;1999.90;999.90;;;22.00;99.90;;;;;;4990331;28;20042;-81
2023/08/08 09:53:36;;;;;;;1867.30;971.15;;;22.00;99.90;;;;;;4991119;28;20482;-81
2023/08/08 09:56:04;;;;;;;1314.90;869.10;;;22.00;99.90;;;;;;4992052;28;20046;-81
2023/08/08 09:58:30;;;;;;;1007.83;796.03;;;21.80;99.90;;;;;;4974579;28;20043;-81
2023/08/08 10:00:56;;;;;;;1009.08;906.35;;;21.60;99.90;;;;;;4991968;28;20034;-81
2023/08/08 10:03:22;;;;;;;1213.70;882.40;;;21.50;99.90;;;;;;4996374;28;20480;-80
2023/08/08 10:05:48;;;;;;;1243.75;825.55;;;21.40;99.90;;;;;;5009260;28;20048;-81
2023/08/08 10:08:18;;;;;;;1122.05;886.70;;;21.30;99.90;;;;;;5009827;28;20049;-81
2023/08/08 10:10:46;;;;;;;930.95;830.65;;;21.30;99.90;;;;;;5009820;28;20120;-81
2023/08/08 10:13:22;;;;;;;1998.28;999.90;;;21.70;99.90;;;;;;5009975;28;20502;-80
2023/08/08 10:15:48;;;;;;;1999.90;999.90;;;22.10;99.90;;;;;;5011264;28;20034;-80
2023/08/08 10:18:14;;;;;;;1999.90;967.88;;;22.00;99.90;;;;;;5007401;28;20037;-81
2023/08/08 10:20:43;;;;;;;1999.90;970.70;;;21.40;99.90;;;;;;4989630;28;20054;-80
2023/08/08 10:23:09;;;;;;;1988.57;988.78;;;21.10;99.90;;;;;;4986914;28;20043;-81
2023/08/08 10:25:35;;;;;;;1999.90;990.75;;;20.90;99.90;;;;;;4971359;28;20039;-81
2023/08/08 10:28:13;;;;;;;1999.90;999.90;;;20.50;99.90;;;;;;4970651;28;20100;-81
2023/08/08 10:31:01;;;;;;;1856.85;828.58;;;20.90;99.90;;;;;;4971145;28;20039;-80
2023/08/08 10:33:47;;;;;;;1999.90;999.90;;;21.20;99.90;;;;;;4970233;28;20118;-81
2023/08/08 10:36:13;;;;;;;1999.90;999.90;;;21.30;99.90;;;;;;4971688;28;20050;-81
2023/08/08 10:38:43;;;;;;;1999.90;999.90;;;21.00;99.90;;;;;;4988919;28;20400;-81
2023/08/08 10:41:15;;;;;;;1999.90;707.75;;;20.80;99.90;;;;;;5010876;28;20038;-81
2023/08/08 10:43:52;;;;;;;1999.90;952.17;;;21.00;99.90;;;;;;5009584;28;20121;-81
2023/08/08 10:46:29;;;;;;;1999.90;999.90;;;21.40;99.90;;;;;;5010811;28;20299;-81
2023/08/08 10:49:01;;;;;;;1999.90;999.90;;;21.60;99.90;;;;;;5010388;28;20049;-81
2023/08/08 10:51:42;;;;;;;1999.90;999.90;;;21.50;99.90;;;;;;5009231;28;20627;-81
2023/08/08 10:54:16;;;;;;;1999.90;999.90;;;21.60;99.90;;;;;;4991081;28;20039;-81
2023/08/08 10:56:48;;;;;;;1999.90;999.90;;;21.70;99.90;;;;;;4977672;28;20122;-81
2023/08/08 10:59:19;;;;;;;1999.90;999.90;;;21.90;99.90;;;;;;4970371;28;20104;-80
2023/08/08 11:01:47;;;;;;;1999.90;999.90;;;21.70;99.90;;;;;;4971562;28;20066;-81
2023/08/08 11:04:13;;;;;;;1999.90;999.90;;;21.70;99.90;;;;;;4969775;28;20050;-80
2023/08/08 11:06:40;;;;;;;1999.90;999.90;;;21.60;99.90;;;;;;4971245;28;20049;-82
2023/08/08 11:09:06;;;;;;;1999.90;999.90;;;21.60;99.90;;;;;;4971138;28;20047;-81
2023/08/08 11:11:43;;;;;;;1999.90;999.90;;;21.70;99.90;;;;;;4989848;28;20412;-82
2023/08/08 11:14:10;;;;;;;1999.90;999.90;;;22.00;99.90;;;;;;4994243;28;20052;-81
2023/08/08 11:16:36;;;;;;;1999.90;999.90;;;22.00;99.90;;;;;;4990232;28;20049;-81
2023/08/08 11:19:02;;;;;;;1999.90;999.90;;;22.00;99.90;;;;;;4990328;28;20452;-81
2023/08/08 11:21:28;;;;;;;1999.90;999.90;;;22.10;99.80;;;;;;4990520;28;20269;-82
2023/08/08 11:23:54;;;;;;;1999.90;999.90;;;22.00;99.50;;;;;;4988821;28;20268;-81
2023/08/08 11:26:20;;;;;;;1999.90;999.90;;;21.50;99.10;;;;;;4989045;28;20543;-81
2023/08/08 11:28:50;;;;;;;1999.90;999.90;;;21.40;99.90;;;;;;4986074;28;20039;-80
2023/08/08 11:31:16;;;;;;;1999.90;999.90;;;21.70;99.90;;;;;;4974947;28;20138;-80
2023/08/08 11:33:41;;;;;;;1999.90;999.90;;;22.10;99.90;;;;;;5008449;28;20126;-81
2023/08/08 11:36:07;;;;;;;1999.90;999.90;;;21.90;99.40;;;;;;5008307;28;20038;-81
2023/08/08 11:38:33;;;;;;;1999.90;999.90;;;21.60;99.50;;;;;;5008660;28;20108;-81
2023/08/08 11:40:59;;;;;;;1999.90;999.90;;;21.40;99.90;;;;;;5009593;28;20481;-81
2023/08/08 11:43:25;;;;;;;1999.90;999.90;;;21.50;99.90;;;;;;5009531;28;20040;-81
2023/08/08 11:45:53;;;;;;;1999.90;999.90;;;21.60;99.90;;;;;;5008112;28;20498;-80
2023/08/08 11:48:21;;;;;;;1999.90;999.90;;;21.80;99.90;;;;;;5008316;28;20038;-81
2023/08/08 11:50:47;;;;;;;1999.90;999.90;;;22.10;99.90;;;;;;5007340;28;20125;-80
2023/08/08 11:53:12;;;;;;;1999.90;999.90;;;22.10;99.90;;;;;;5008106;28;20125;-81
2023/08/08 11:55:38;;;;;;;1999.90;999.90;;;21.70;99.50;;;;;;5007958;28;20049;-81
2023/08/08 11:58:05;;;;;;;1999.90;999.90;;;21.50;99.70;;;;;;5009580;28;20053;-81
2023/08/08 12:00:31;;;;;;;1999.90;999.90;;;21.50;99.90;;;;;;4991303;28;20050;-81
2023/08/08 12:02:58;;;;;;;1999.90;999.90;;;21.50;99.90;;;;;;5008523;28;20164;-81
2023/08/08 12:05:24;;;;;;;1999.90;999.90;;;21.50;99.40;;;;;;5009381;28;20084;-81
2023/08/08 12:07:51;;;;;;;1999.90;999.90;;;21.60;99.90;;;;;;4991495;28;20126;-81
2023/08/08 12:10:22;;;;;;;1999.90;999.90;;;21.60;99.60;;;;;;4997857;28;20042;-81